createdAt,value
2023-03-31T00:00:11.799Z,19.98
2023-03-31T00:02:41.523Z,28.20
2023-03-31T00:05:09.648Z,27.17
2023-03-31T00:07:38.064Z,26.30
2023-03-31T00:10:17.286Z,31.83
2023-03-31T00:12:45.753Z,27.70
2023-03-31T00:15:12.602Z,23.30
2023-03-31T00:17:39.916Z,23.90
2023-03-31T00:20:12.145Z,27.42
2023-03-31T00:22:42.324Z,26.38
2023-03-31T00:25:16.664Z,26.23
2023-03-31T00:27:44.963Z,28.48
2023-03-31T00:30:14.935Z,25.58
2023-03-31T00:32:42.007Z,29.58
2023-03-31T00:35:08.957Z,29.50
2023-03-31T00:37:35.920Z,28.33
2023-03-31T00:40:09.649Z,23.65
2023-03-31T00:42:41.750Z,32.72
2023-03-31T00:45:14.344Z,30.27
2023-03-31T00:47:45.760Z,30.23
2023-03-31T00:50:28.951Z,28.10
2023-03-31T00:53:08.826Z,27.88
2023-03-31T00:55:42.045Z,31.95
2023-03-31T00:58:09.746Z,28.77
2023-03-31T01:00:36.465Z,26.38
2023-03-31T01:03:06.806Z,24.10
2023-03-31T01:05:43.181Z,26.98
2023-03-31T01:08:10.820Z,27.95
2023-03-31T01:10:41.933Z,28.80
2023-03-31T01:13:11.170Z,30.60
2023-03-31T01:15:39.110Z,32.10
2023-03-31T01:18:07.084Z,29.42
2023-03-31T01:20:36.841Z,31.70
2023-03-31T01:23:35.511Z,32.22
2023-03-31T01:26:38.737Z,35.88
2023-03-31T01:29:13.407Z,27.73
2023-03-31T01:32:06.975Z,26.27
2023-03-31T01:34:40.283Z,27.80
2023-03-31T01:37:21.232Z,34.10
2023-03-31T01:40:09.748Z,29.92
2023-03-31T01:42:45.273Z,31.48
2023-03-31T01:45:38.113Z,27.45
2023-03-31T01:48:34.083Z,28.75
2023-03-31T01:51:10.242Z,29.40
2023-03-31T01:54:08.460Z,26.98
2023-03-31T01:56:57.095Z,29.60
2023-03-31T01:59:40.404Z,26.52
2023-03-31T02:02:16.674Z,34.58
2023-03-31T02:04:57.092Z,28.02
2023-03-31T02:07:54.092Z,31.38
2023-03-31T02:10:22.930Z,25.80
2023-03-31T02:12:51.463Z,26.95
2023-03-31T02:15:33.494Z,27.13
2023-03-31T02:18:03.690Z,27.67
2023-03-31T02:20:32.473Z,34.20
2023-03-31T02:23:00.043Z,23.90
2023-03-31T02:25:36.254Z,23.45
2023-03-31T02:28:09.230Z,27.90
2023-03-31T02:30:46.068Z,20.50
2023-03-31T02:33:12.757Z,18.83
2023-03-31T02:35:39.662Z,23.00
2023-03-31T02:38:06.805Z,21.80
2023-03-31T02:40:33.499Z,21.40
2023-03-31T02:43:00.351Z,20.00
2023-03-31T02:45:42.842Z,18.67
2023-03-31T02:48:23.172Z,18.50
2023-03-31T02:51:10.649Z,21.10
2023-03-31T02:53:52.552Z,23.52
2023-03-31T02:56:49.958Z,17.27
2023-03-31T02:59:24.978Z,20.60
2023-03-31T03:02:16.213Z,21.95
2023-03-31T03:04:55.546Z,16.13
2023-03-31T03:07:42.000Z,13.15
2023-03-31T03:10:48.270Z,15.95
2023-03-31T03:13:30.794Z,18.48
2023-03-31T03:16:24.504Z,16.30
2023-03-31T03:18:57.097Z,13.43
2023-03-31T03:21:23.909Z,14.88
2023-03-31T03:23:51.680Z,14.00
2023-03-31T03:26:21.488Z,15.00
2023-03-31T03:28:49.008Z,11.02
2023-03-31T03:31:15.735Z,11.23
2023-03-31T03:33:43.325Z,12.98
2023-03-31T03:36:10.358Z,14.90
2023-03-31T03:38:37.027Z,16.92
2023-03-31T03:41:03.941Z,11.52
2023-03-31T03:43:30.624Z,18.27
2023-03-31T03:45:57.242Z,10.90
2023-03-31T03:48:24.012Z,11.93
2023-03-31T03:50:51.218Z,14.30
2023-03-31T03:53:17.789Z,10.60
2023-03-31T03:55:45.450Z,11.20
2023-03-31T03:58:11.989Z,14.00
2023-03-31T04:00:38.521Z,12.18
2023-03-31T04:03:05.354Z,10.00
2023-03-31T04:05:31.946Z,10.77
2023-03-31T04:07:58.615Z,10.23
2023-03-31T04:10:25.262Z,11.82
2023-03-31T04:12:51.806Z,10.70
2023-03-31T04:15:18.360Z,10.07
2023-03-31T04:17:51.103Z,10.00
2023-03-31T04:20:17.751Z,17.73
2023-03-31T04:22:46.962Z,10.35
2023-03-31T04:25:17.689Z,9.25
2023-03-31T04:27:54.834Z,11.20
2023-03-31T04:30:23.693Z,10.40
2023-03-31T04:32:56.454Z,7.68
2023-03-31T04:35:24.893Z,11.05
2023-03-31T04:37:58.992Z,10.57
2023-03-31T04:40:26.575Z,6.88
2023-03-31T04:42:53.161Z,8.95
2023-03-31T04:45:19.734Z,11.80
2023-03-31T04:47:46.289Z,13.43
2023-03-31T04:50:16.156Z,9.85
2023-03-31T04:52:43.716Z,9.18
2023-03-31T04:55:10.379Z,12.80
2023-03-31T04:57:37.339Z,13.02
2023-03-31T05:00:08.226Z,7.82
2023-03-31T05:02:35.044Z,9.27
2023-03-31T05:05:01.718Z,8.57
2023-03-31T05:07:28.339Z,6.72
2023-03-31T05:09:54.860Z,11.82
2023-03-31T05:12:21.520Z,8.15
2023-03-31T05:14:48.165Z,10.50
2023-03-31T05:17:14.747Z,9.70
2023-03-31T05:19:41.342Z,7.70
2023-03-31T05:22:08.044Z,8.88
2023-03-31T05:24:38.232Z,10.73
2023-03-31T05:27:04.813Z,10.25
2023-03-31T05:29:31.367Z,9.48
2023-03-31T05:31:58.028Z,8.25
2023-03-31T05:34:24.607Z,11.45
2023-03-31T05:36:53.823Z,14.10
2023-03-31T05:39:21.856Z,10.38
2023-03-31T05:41:48.483Z,11.77
2023-03-31T05:44:15.457Z,11.38
2023-03-31T05:46:42.539Z,10.60
2023-03-31T05:49:09.155Z,9.18
2023-03-31T05:51:35.787Z,9.15
2023-03-31T05:54:02.549Z,7.72
2023-03-31T05:56:29.273Z,11.43
2023-03-31T05:58:55.814Z,14.48
2023-03-31T06:01:23.642Z,12.85
2023-03-31T06:03:50.614Z,7.47
2023-03-31T06:06:17.426Z,9.13
2023-03-31T06:08:45.874Z,9.32
2023-03-31T06:11:16.375Z,7.72
2023-03-31T06:13:43.311Z,8.68
2023-03-31T06:16:12.361Z,10.48
2023-03-31T06:18:40.072Z,7.50
2023-03-31T06:21:07.994Z,9.05
2023-03-31T06:23:35.287Z,9.32
2023-03-31T06:26:06.303Z,13.10
2023-03-31T06:28:36.500Z,6.50
2023-03-31T06:31:13.048Z,8.48
2023-03-31T06:33:41.759Z,6.43
2023-03-31T06:36:09.687Z,6.88
2023-03-31T06:38:38.388Z,9.30
2023-03-31T06:41:09.598Z,11.13
2023-03-31T06:43:36.293Z,7.40
2023-03-31T06:46:02.994Z,7.95
2023-03-31T06:48:29.748Z,10.63
2023-03-31T06:51:00.150Z,10.30
2023-03-31T06:53:27.078Z,9.50
2023-03-31T06:55:54.014Z,9.43
2023-03-31T06:58:22.557Z,9.93
2023-03-31T07:00:49.620Z,6.90
2023-03-31T07:03:22.687Z,9.02
2023-03-31T07:05:51.012Z,7.40
2023-03-31T07:08:18.543Z,11.95
2023-03-31T07:10:49.138Z,6.75
2023-03-31T07:13:17.601Z,12.15
2023-03-31T07:15:46.940Z,6.45
2023-03-31T07:18:15.712Z,10.27
2023-03-31T07:20:44.012Z,7.25
2023-03-31T07:23:10.886Z,8.48
2023-03-31T07:25:37.620Z,7.95
2023-03-31T07:28:06.123Z,10.20
2023-03-31T07:30:32.775Z,7.93
2023-03-31T07:32:59.571Z,9.13
2023-03-31T07:35:26.247Z,11.38
2023-03-31T07:37:52.904Z,7.50
2023-03-31T07:40:25.501Z,10.75
2023-03-31T07:42:53.094Z,10.95
2023-03-31T07:45:21.480Z,7.03
2023-03-31T07:47:48.492Z,8.20
2023-03-31T07:50:16.141Z,15.23
2023-03-31T07:52:46.154Z,9.30
2023-03-31T07:55:14.721Z,8.20
2023-03-31T07:57:42.158Z,9.82
2023-03-31T08:00:12.532Z,7.70
2023-03-31T08:02:42.926Z,6.53
2023-03-31T08:05:11.933Z,9.68
2023-03-31T08:07:41.650Z,5.75
2023-03-31T08:10:11.201Z,6.93
2023-03-31T08:12:37.844Z,5.22
2023-03-31T08:15:05.368Z,7.85
2023-03-31T08:17:31.950Z,4.88
2023-03-31T08:20:01.638Z,7.15
2023-03-31T08:22:30.526Z,8.38
2023-03-31T08:24:57.124Z,8.02
2023-03-31T08:27:24.148Z,9.15
2023-03-31T08:29:50.697Z,9.13
2023-03-31T08:32:17.421Z,8.10
2023-03-31T08:34:45.198Z,11.93
2023-03-31T08:37:11.815Z,4.75
2023-03-31T08:39:39.061Z,4.78
2023-03-31T08:42:16.837Z,9.68
2023-03-31T08:45:00.037Z,9.52
2023-03-31T08:47:29.497Z,6.70
2023-03-31T08:50:20.787Z,4.13
2023-03-31T08:53:00.150Z,4.63
2023-03-31T08:55:43.662Z,7.85
2023-03-31T08:58:36.227Z,7.25
2023-03-31T09:01:26.247Z,15.90
2023-03-31T09:04:02.646Z,8.57
2023-03-31T09:06:42.745Z,5.95
2023-03-31T09:09:25.682Z,4.55
2023-03-31T09:11:57.520Z,6.68
2023-03-31T09:15:02.592Z,6.35
2023-03-31T09:17:39.067Z,7.97
2023-03-31T09:20:13.460Z,4.00
2023-03-31T09:22:48.769Z,5.75
2023-03-31T09:25:28.370Z,6.85
2023-03-31T09:27:59.904Z,12.65
2023-03-31T09:30:29.609Z,4.88
2023-03-31T09:33:23.184Z,6.35
2023-03-31T09:35:51.926Z,10.05
2023-03-31T09:38:18.804Z,5.05
2023-03-31T09:40:45.945Z,6.45
2023-03-31T09:43:35.684Z,6.72
2023-03-31T09:46:09.826Z,3.53
2023-03-31T09:48:38.808Z,7.28
2023-03-31T09:51:07.818Z,11.95
2023-03-31T09:54:02.033Z,5.72
2023-03-31T09:56:35.987Z,9.90
2023-03-31T09:59:04.135Z,5.15
2023-03-31T10:01:32.010Z,6.45
2023-03-31T10:03:58.786Z,5.18
2023-03-31T10:06:26.654Z,5.25
2023-03-31T10:09:05.357Z,17.67
2023-03-31T10:11:32.271Z,9.20
2023-03-31T10:14:13.260Z,6.50
2023-03-31T10:16:53.367Z,3.72
2023-03-31T10:19:26.517Z,4.22
2023-03-31T10:22:01.650Z,7.70
2023-03-31T10:24:43.492Z,4.65
2023-03-31T10:27:20.035Z,4.18
2023-03-31T10:29:47.149Z,5.90
2023-03-31T10:32:30.605Z,7.20
2023-03-31T10:34:59.465Z,5.68
2023-03-31T10:37:28.555Z,6.75
2023-03-31T10:40:29.199Z,5.30
2023-03-31T10:43:23.469Z,6.35
2023-03-31T10:45:54.794Z,4.78
2023-03-31T10:48:33.248Z,5.90
2023-03-31T10:51:14.229Z,8.27
2023-03-31T10:53:43.924Z,6.50
2023-03-31T10:56:35.016Z,3.88
2023-03-31T10:59:27.754Z,4.68
2023-03-31T11:02:01.922Z,7.40
2023-03-31T11:04:50.430Z,4.10
2023-03-31T11:07:38.409Z,5.85
2023-03-31T11:10:13.928Z,6.15
2023-03-31T11:12:58.957Z,3.53
2023-03-31T11:16:02.618Z,5.53
2023-03-31T11:18:53.655Z,5.47
2023-03-31T11:21:47.822Z,5.80
2023-03-31T11:24:35.717Z,6.15
2023-03-31T11:27:58.593Z,6.30
2023-03-31T11:33:07.009Z,8.05
2023-03-31T11:36:22.237Z,9.80
2023-03-31T11:38:53.754Z,8.70
2023-03-31T11:41:30.126Z,10.30
2023-03-31T11:44:03.923Z,5.47
2023-03-31T11:46:49.456Z,8.90
2023-03-31T11:49:21.985Z,7.97
2023-03-31T11:52:00.500Z,5.20
2023-03-31T11:54:42.127Z,8.60
2023-03-31T11:57:31.607Z,12.77
2023-03-31T12:00:17.487Z,6.00
2023-03-31T12:02:59.378Z,5.50
2023-03-31T12:05:28.685Z,5.70
2023-03-31T12:08:11.742Z,6.93
2023-03-31T12:10:44.594Z,5.00
2023-03-31T12:13:44.599Z,5.88
2023-03-31T12:16:28.892Z,5.40
2023-03-31T12:19:22.711Z,12.02
2023-03-31T12:21:55.695Z,11.50
2023-03-31T12:24:22.305Z,6.90
2023-03-31T12:27:19.683Z,6.60
2023-03-31T12:29:57.812Z,7.60
2023-03-31T12:32:29.847Z,8.02
2023-03-31T12:35:05.746Z,5.47
2023-03-31T12:37:44.132Z,6.55
2023-03-31T12:40:45.847Z,5.03
2023-03-31T12:43:38.678Z,8.55
2023-03-31T12:46:36.782Z,9.82
2023-03-31T12:49:41.291Z,7.45
2023-03-31T12:52:18.227Z,4.90
2023-03-31T12:54:59.795Z,5.75
2023-03-31T12:57:27.188Z,6.45
2023-03-31T13:00:07.649Z,7.05
2023-03-31T13:02:34.459Z,7.75
2023-03-31T13:05:36.281Z,6.10
2023-03-31T13:08:08.595Z,16.00
2023-03-31T13:10:55.919Z,8.70
2023-03-31T13:13:22.591Z,5.65
2023-03-31T13:16:01.126Z,5.43
2023-03-31T13:18:32.533Z,8.55
2023-03-31T13:23:33.541Z,5.13
2023-03-31T13:26:00.852Z,12.75
2023-03-31T13:28:42.408Z,4.03
2023-03-31T13:31:15.114Z,4.82
2023-03-31T13:33:57.404Z,5.88
2023-03-31T13:36:48.814Z,8.13
2023-03-31T13:39:39.872Z,10.60
2023-03-31T13:42:36.898Z,7.43
2023-03-31T13:45:09.760Z,7.35
2023-03-31T13:47:53.699Z,8.75
2023-03-31T13:50:47.064Z,7.85
2023-03-31T13:53:28.754Z,6.15
2023-03-31T13:56:08.703Z,9.05
2023-03-31T13:58:50.706Z,10.50
2023-03-31T14:01:58.789Z,6.20
2023-03-31T14:04:46.731Z,12.18
2023-03-31T14:07:26.643Z,4.18
2023-03-31T14:09:54.099Z,7.45
2023-03-31T14:12:36.544Z,10.77
2023-03-31T14:15:05.685Z,7.10
2023-03-31T14:17:38.691Z,9.32
2023-03-31T14:20:30.227Z,9.30
2023-03-31T14:23:18.209Z,5.37
2023-03-31T14:26:02.532Z,6.00
2023-03-31T14:29:03.506Z,9.30
2023-03-31T14:31:55.103Z,15.25
2023-03-31T14:34:43.063Z,4.47
2023-03-31T14:37:17.736Z,4.30
2023-03-31T14:39:48.577Z,4.88
2023-03-31T14:42:26.946Z,4.22
2023-03-31T14:44:58.355Z,10.95
2023-03-31T14:47:30.314Z,3.55
2023-03-31T14:50:28.262Z,4.20
2023-03-31T14:52:55.582Z,4.57
2023-03-31T14:55:31.801Z,4.63
2023-03-31T14:58:14.166Z,4.78
2023-03-31T15:00:41.403Z,4.72
2023-03-31T15:03:16.397Z,7.93
2023-03-31T15:05:44.384Z,8.05
2023-03-31T15:08:16.143Z,8.95
2023-03-31T15:10:46.154Z,5.60
2023-03-31T15:13:19.258Z,5.05
2023-03-31T15:15:46.280Z,7.72
2023-03-31T15:18:14.899Z,7.50
2023-03-31T15:20:44.030Z,8.45
2023-03-31T15:23:31.014Z,4.40
2023-03-31T15:26:01.853Z,3.35
2023-03-31T15:28:33.914Z,8.82
2023-03-31T15:33:50.706Z,5.03
2023-03-31T15:36:17.385Z,5.53
2023-03-31T15:38:44.090Z,5.05
2023-03-31T15:41:17.539Z,5.97
2023-03-31T15:44:04.519Z,7.18
2023-03-31T15:46:43.394Z,7.60
2023-03-31T15:49:21.558Z,8.02
2023-03-31T15:51:50.707Z,10.05
2023-03-31T15:54:34.170Z,8.98
2023-03-31T15:57:06.973Z,5.30
2023-03-31T15:59:55.350Z,8.93
2023-03-31T16:02:34.562Z,6.45
2023-03-31T16:05:08.066Z,9.30
2023-03-31T16:07:37.545Z,13.40
2023-03-31T16:10:17.811Z,13.13
2023-03-31T16:13:02.969Z,17.10
2023-03-31T16:15:34.933Z,18.20
2023-03-31T16:18:13.125Z,15.68
2023-03-31T16:20:46.074Z,13.82
2023-03-31T16:23:26.336Z,11.45
2023-03-31T16:25:59.571Z,13.32
2023-03-31T16:28:30.859Z,12.82
2023-03-31T16:31:01.755Z,15.18
2023-03-31T16:33:31.738Z,43.55
2023-03-31T16:35:59.003Z,24.17
2023-03-31T16:38:29.800Z,16.50
2023-03-31T16:40:59.098Z,22.02
2023-03-31T16:43:28.273Z,19.10
2023-03-31T16:45:57.516Z,21.88
2023-03-31T16:48:26.432Z,40.00
2023-03-31T16:50:55.536Z,24.67
2023-03-31T16:53:26.461Z,31.98
2023-03-31T16:55:53.385Z,26.33
2023-03-31T16:58:20.329Z,23.13
2023-03-31T17:00:47.771Z,15.88
2023-03-31T17:03:19.162Z,26.67
2023-03-31T17:05:52.807Z,20.85
2023-03-31T17:08:27.240Z,48.97
2023-03-31T17:11:08.526Z,73.75
2023-03-31T17:13:34.958Z,72.20
2023-03-31T17:18:49.620Z,100.57
2023-03-31T17:21:20.438Z,168.35
2023-03-31T17:23:47.571Z,139.38
2023-03-31T17:26:15.421Z,164.70
2023-03-31T17:28:42.872Z,45.10
2023-03-31T17:31:18.720Z,300.65
2023-03-31T17:33:45.346Z,838.30
2023-03-31T17:36:12.545Z,326.00
2023-03-31T17:38:40.143Z,420.98
2023-03-31T17:41:09.220Z,355.83
2023-03-31T17:43:36.249Z,107.43
2023-03-31T17:46:09.945Z,161.23
2023-03-31T17:48:39.124Z,772.13
2023-03-31T17:51:24.242Z,905.90
2023-03-31T17:53:51.010Z,1310.70
2023-03-31T17:56:17.885Z,728.13
2023-03-31T17:58:45.291Z,224.38
2023-03-31T18:01:12.664Z,431.42
2023-03-31T18:03:39.740Z,88.25
2023-03-31T18:06:11.763Z,57.58
2023-03-31T18:11:09.040Z,450.60
2023-03-31T18:13:41.338Z,378.15
2023-03-31T18:18:28.072Z,80.78
2023-03-31T18:20:55.401Z,165.57
2023-03-31T18:23:23.135Z,52.08
2023-03-31T18:25:50.087Z,88.13
2023-03-31T18:28:17.902Z,195.45
2023-03-31T18:30:44.827Z,401.90
2023-03-31T18:33:12.780Z,202.07
2023-03-31T18:35:39.979Z,74.68
2023-03-31T18:38:07.199Z,51.05
2023-03-31T18:40:33.990Z,300.75
2023-03-31T18:43:00.736Z,464.63
2023-03-31T18:45:28.141Z,336.30
2023-03-31T18:47:58.503Z,324.77
2023-03-31T18:50:30.573Z,111.07
2023-03-31T18:52:57.862Z,60.33
2023-03-31T18:55:24.589Z,92.72
2023-03-31T18:57:59.264Z,43.53
2023-03-31T19:00:30.227Z,140.77
2023-03-31T19:02:57.419Z,87.93
2023-03-31T19:05:24.146Z,45.85
2023-03-31T19:07:51.322Z,36.65
2023-03-31T19:10:18.202Z,27.65
2023-03-31T19:12:48.862Z,20.60
2023-03-31T19:15:16.565Z,115.40
2023-03-31T19:17:43.306Z,26.75
2023-03-31T19:20:16.950Z,31.75
2023-03-31T19:22:49.452Z,10.57
2023-03-31T19:25:22.753Z,63.55
2023-03-31T19:27:50.361Z,31.38
2023-03-31T19:30:22.744Z,190.68
2023-03-31T19:32:49.992Z,59.85
2023-03-31T19:35:18.405Z,34.13
2023-03-31T19:37:46.135Z,41.28
2023-03-31T19:40:14.637Z,24.05
2023-03-31T19:42:44.618Z,26.98
2023-03-31T19:45:14.166Z,24.25
2023-03-31T19:47:42.016Z,31.77
2023-03-31T19:50:13.226Z,32.35
2023-03-31T19:52:40.038Z,25.97
2023-03-31T19:55:07.231Z,43.63
2023-03-31T19:57:33.984Z,204.55
2023-03-31T20:00:01.322Z,115.07
2023-03-31T20:02:40.891Z,829.22
2023-03-31T20:05:08.123Z,682.10
2023-03-31T20:07:34.676Z,139.80
2023-03-31T20:10:03.939Z,135.27
2023-03-31T20:12:32.487Z,493.58
2023-03-31T20:15:01.767Z,739.60
2023-03-31T20:17:28.371Z,324.48
2023-03-31T20:20:01.769Z,266.02
2023-03-31T20:22:30.633Z,601.00
2023-03-31T20:24:58.750Z,197.60
2023-03-31T20:27:26.449Z,1247.60
2023-03-31T20:29:56.503Z,1046.07
2023-03-31T20:32:24.153Z,593.72
2023-03-31T20:34:50.833Z,78.57
2023-03-31T20:37:18.249Z,103.47
2023-03-31T20:39:45.577Z,107.38
2023-03-31T20:42:13.076Z,83.18
2023-03-31T20:44:39.962Z,646.10
2023-03-31T20:47:07.390Z,27.58
2023-03-31T20:49:34.150Z,23.95
2023-03-31T20:52:01.347Z,33.15
2023-03-31T20:54:28.037Z,30.85
2023-03-31T20:56:54.703Z,49.13
2023-03-31T20:59:24.352Z,31.55
2023-03-31T21:01:51.590Z,30.73
2023-03-31T21:04:18.267Z,34.72
2023-03-31T21:06:47.416Z,32.67
2023-03-31T21:09:18.996Z,25.50
2023-03-31T21:11:45.891Z,24.20
2023-03-31T21:14:16.871Z,24.98
2023-03-31T21:16:43.741Z,21.92
2023-03-31T21:19:10.696Z,21.85
2023-03-31T21:21:40.101Z,19.35
2023-03-31T21:24:07.986Z,17.95
2023-03-31T21:26:34.677Z,17.15
2023-03-31T21:29:01.260Z,15.40
2023-03-31T21:31:28.003Z,19.10
2023-03-31T21:33:57.603Z,28.30
2023-03-31T21:36:25.232Z,36.92
2023-03-31T21:38:57.128Z,41.70
2023-03-31T21:41:30.305Z,28.90
2023-03-31T21:44:00.496Z,29.67
2023-03-31T21:46:31.784Z,15.38
2023-03-31T21:48:58.589Z,18.05
2023-03-31T21:51:26.611Z,14.15
2023-03-31T21:53:55.728Z,12.52
2023-03-31T21:56:24.328Z,7.93
2023-03-31T21:58:51.633Z,9.35
2023-03-31T22:01:18.663Z,10.23
2023-03-31T22:03:45.675Z,8.07
2023-03-31T22:06:12.906Z,4.40
2023-03-31T22:08:39.856Z,4.80
2023-03-31T22:11:10.282Z,5.00
2023-03-31T22:13:37.223Z,3.72
2023-03-31T22:16:05.883Z,3.17
2023-03-31T22:18:32.617Z,5.38
2023-03-31T22:20:59.301Z,7.40
2023-03-31T22:23:27.505Z,10.85
2023-03-31T22:25:55.476Z,6.63
2023-03-31T22:28:22.133Z,10.32
2023-03-31T22:30:48.742Z,6.32
2023-03-31T22:33:17.867Z,4.75
2023-03-31T22:35:44.469Z,7.95
2023-03-31T22:40:40.388Z,6.07
2023-03-31T22:43:07.040Z,3.80
2023-03-31T22:45:37.706Z,4.53
2023-03-31T22:48:05.310Z,7.47
2023-03-31T22:50:32.685Z,6.68
2023-03-31T22:52:59.806Z,5.10
2023-03-31T22:55:26.630Z,5.95
2023-03-31T22:57:53.201Z,16.60
2023-03-31T23:00:19.855Z,8.63
2023-03-31T23:02:46.564Z,9.50
2023-03-31T23:05:13.178Z,7.63
2023-03-31T23:07:39.890Z,6.20
2023-03-31T23:10:07.163Z,6.57
2023-03-31T23:12:34.168Z,5.88
2023-03-31T23:15:03.759Z,10.20
2023-03-31T23:17:31.030Z,7.95
2023-03-31T23:19:57.588Z,5.78
2023-03-31T23:22:25.723Z,8.45
2023-03-31T23:24:52.513Z,9.05
2023-03-31T23:27:19.763Z,5.68
2023-03-31T23:29:46.627Z,7.38
2023-03-31T23:32:14.345Z,7.80
2023-03-31T23:34:41.827Z,5.32
2023-03-31T23:37:10.350Z,10.25
2023-03-31T23:39:38.715Z,4.30
2023-03-31T23:42:10.018Z,4.50
2023-03-31T23:44:39.539Z,3.70
2023-03-31T23:47:06.160Z,9.98
2023-03-31T23:49:33.351Z,2.85
2023-03-31T23:51:59.971Z,4.63
2023-03-31T23:54:27.230Z,8.23
2023-03-31T23:56:53.831Z,4.70
2023-03-31T23:59:20.620Z,4.97
